createdAt,value
2022-09-03T00:01:51.930Z,75.18
2022-09-03T00:07:03.254Z,74.91
2022-09-03T00:12:43.381Z,77.36
2022-09-03T00:17:50.364Z,77.90
2022-09-03T00:22:55.548Z,78.61
2022-09-03T00:27:59.837Z,77.51
2022-09-03T00:33:07.024Z,77.00
2022-09-03T00:38:09.488Z,78.57
2022-09-03T00:43:19.921Z,81.01
2022-09-03T00:48:28.736Z,78.89
2022-09-03T00:53:42.012Z,79.32
2022-09-03T00:58:51.952Z,80.83
2022-09-03T01:04:08.412Z,79.67
2022-09-03T01:09:35.563Z,82.16
2022-09-03T01:14:37.165Z,85.44
2022-09-03T01:19:47.911Z,85.64
2022-09-03T01:24:58.856Z,87.01
2022-09-03T01:30:17.064Z,85.67
2022-09-03T01:35:32.056Z,83.81
2022-09-03T01:40:51.762Z,82.56
2022-09-03T01:46:00.700Z,82.47
2022-09-03T01:51:02.518Z,83.62
2022-09-03T01:56:59.252Z,85.69
2022-09-03T02:02:27.795Z,86.49
2022-09-03T02:07:36.266Z,87.31
2022-09-03T02:12:40.223Z,90.33
2022-09-03T02:17:44.085Z,86.02
2022-09-03T02:22:47.335Z,85.53
2022-09-03T02:27:50.943Z,85.13
2022-09-03T02:32:52.647Z,84.96
2022-09-03T02:37:54.512Z,85.46
2022-09-03T02:42:56.229Z,84.94
2022-09-03T02:48:00.697Z,84.23
2022-09-03T02:53:02.479Z,83.76
2022-09-03T02:58:06.938Z,83.49
2022-09-03T03:03:08.597Z,83.01
2022-09-03T03:08:12.295Z,82.97
2022-09-03T03:13:14.290Z,82.91
2022-09-03T03:18:17.458Z,84.98
2022-09-03T03:23:19.133Z,86.01
2022-09-03T03:28:21.124Z,85.61
2022-09-03T03:33:22.839Z,84.10
2022-09-03T03:38:26.256Z,83.62
2022-09-03T03:43:28.090Z,83.64
2022-09-03T03:48:29.833Z,83.21
2022-09-03T03:53:31.953Z,83.05
2022-09-03T03:58:34.040Z,82.63
2022-09-03T04:03:37.216Z,83.95
2022-09-03T04:08:43.625Z,83.73
2022-09-03T04:13:48.448Z,83.14
2022-09-03T04:18:51.012Z,82.94
2022-09-03T04:23:53.729Z,82.59
2022-09-03T04:28:55.573Z,84.14
2022-09-03T04:33:57.387Z,86.23
2022-09-03T04:39:01.651Z,85.23
2022-09-03T04:44:03.331Z,85.27
2022-09-03T04:49:05.210Z,86.10
2022-09-03T04:54:07.181Z,87.00
2022-09-03T04:59:09.764Z,85.98
2022-09-03T05:04:11.458Z,85.30
2022-09-03T05:09:13.321Z,89.69
2022-09-03T05:14:14.975Z,88.33
2022-09-03T05:19:16.707Z,88.20
2022-09-03T05:24:18.747Z,84.39
2022-09-03T05:29:21.981Z,83.16
2022-09-03T05:34:23.844Z,81.96
2022-09-03T05:39:25.712Z,82.47
2022-09-03T05:44:27.369Z,82.06
2022-09-03T05:49:30.325Z,81.25
2022-09-03T05:54:32.173Z,81.30
2022-09-03T05:59:33.791Z,82.42
2022-09-03T06:04:35.481Z,82.46
2022-09-03T06:09:37.136Z,81.90
2022-09-03T06:14:39.010Z,81.23
2022-09-03T06:19:40.880Z,80.40
2022-09-03T06:24:42.585Z,79.84
2022-09-03T06:29:44.814Z,78.81
2022-09-03T06:34:46.636Z,78.29
2022-09-03T06:39:50.560Z,77.65
2022-09-03T06:44:52.352Z,76.60
2022-09-03T06:49:54.227Z,76.19
2022-09-03T06:54:55.909Z,75.39
2022-09-03T06:59:57.543Z,75.22
2022-09-03T07:04:59.653Z,74.08
2022-09-03T07:10:01.887Z,73.74
2022-09-03T07:15:04.284Z,73.92
2022-09-03T07:20:06.727Z,72.38
2022-09-03T07:25:09.005Z,72.93
2022-09-03T07:30:11.578Z,71.94
2022-09-03T07:35:13.692Z,72.24
2022-09-03T07:40:16.184Z,70.83
2022-09-03T07:45:17.985Z,68.97
2022-09-03T07:50:19.913Z,69.58
2022-09-03T07:55:21.824Z,69.71
2022-09-03T08:00:23.883Z,69.87
2022-09-03T08:05:25.729Z,70.08
2022-09-03T08:10:30.607Z,69.59
2022-09-03T08:15:33.616Z,69.56
2022-09-03T08:20:37.816Z,69.08
2022-09-03T08:25:39.543Z,68.64
2022-09-03T08:30:41.356Z,68.02
2022-09-03T08:35:43.204Z,67.69
2022-09-03T08:40:46.133Z,67.26
2022-09-03T08:45:48.025Z,66.45
2022-09-03T08:50:56.104Z,65.30
2022-09-03T08:56:09.043Z,66.46
2022-09-03T09:01:24.313Z,65.63
2022-09-03T09:07:00.950Z,64.85
2022-09-03T09:12:27.923Z,65.27
2022-09-03T09:17:32.531Z,64.69
2022-09-03T09:22:47.110Z,63.15
2022-09-03T09:28:03.796Z,62.80
2022-09-03T09:33:07.187Z,63.33
2022-09-03T09:38:10.589Z,61.83
2022-09-03T09:43:20.532Z,61.56
2022-09-03T09:48:37.616Z,61.44
2022-09-03T09:53:40.695Z,60.94
2022-09-03T09:58:42.360Z,60.80
2022-09-03T10:03:55.377Z,60.79
2022-09-03T10:09:18.256Z,61.52
2022-09-03T10:14:31.105Z,61.38
2022-09-03T10:20:13.049Z,61.10
2022-09-03T10:25:17.618Z,60.64
2022-09-03T10:30:20.060Z,59.46
2022-09-03T10:35:32.051Z,59.67
2022-09-03T10:40:51.466Z,58.03
2022-09-03T10:46:06.357Z,58.64
2022-09-03T10:51:40.507Z,57.09
2022-09-03T10:57:06.904Z,57.99
2022-09-03T11:02:34.702Z,58.21
2022-09-03T11:08:10.078Z,57.54
2022-09-03T11:13:25.436Z,56.27
2022-09-03T11:18:34.990Z,56.20
2022-09-03T11:23:42.760Z,56.03
2022-09-03T11:29:15.567Z,57.07
2022-09-03T11:34:23.627Z,55.57
2022-09-03T11:39:40.447Z,55.63
2022-09-03T11:44:51.374Z,54.77
2022-09-03T11:50:08.389Z,54.63
2022-09-03T11:55:10.062Z,55.49
2022-09-03T12:00:18.029Z,53.28
2022-09-03T12:05:37.177Z,53.56
2022-09-03T12:10:45.081Z,53.31
2022-09-03T12:16:14.292Z,53.38
2022-09-03T12:21:17.195Z,52.55
2022-09-03T12:26:19.819Z,52.50
2022-09-03T12:31:33.022Z,52.10
2022-09-03T12:36:39.180Z,52.65
2022-09-03T12:42:01.483Z,52.19
2022-09-03T12:47:41.311Z,51.65
2022-09-03T12:52:47.030Z,52.48
2022-09-03T12:58:04.323Z,52.59
2022-09-03T13:03:21.378Z,51.32
2022-09-03T13:08:37.968Z,52.00
2022-09-03T13:13:40.772Z,51.27
2022-09-03T13:18:49.777Z,51.14
2022-09-03T13:23:51.299Z,51.18
2022-09-03T13:29:35.948Z,51.17
2022-09-03T13:34:43.097Z,51.43
2022-09-03T13:39:54.536Z,50.91
2022-09-03T13:45:11.125Z,50.99
2022-09-03T13:50:24.576Z,51.45
2022-09-03T13:55:37.872Z,50.53
2022-09-03T14:00:54.965Z,50.28
2022-09-03T14:06:18.525Z,50.19
2022-09-03T14:11:49.011Z,51.01
2022-09-03T14:17:01.277Z,51.36
2022-09-03T14:22:13.735Z,51.56
2022-09-03T14:27:27.571Z,51.26
2022-09-03T14:32:32.105Z,52.27
2022-09-03T14:37:38.954Z,51.30
2022-09-03T14:42:46.719Z,51.97
2022-09-03T14:47:54.771Z,51.40
2022-09-03T14:52:59.463Z,51.64
2022-09-03T14:58:13.001Z,52.29
2022-09-03T15:03:37.107Z,51.86
2022-09-03T15:09:03.537Z,51.19
2022-09-03T15:14:50.188Z,51.95
2022-09-03T15:20:35.642Z,52.18
2022-09-03T15:25:59.225Z,52.00
2022-09-03T15:31:18.470Z,52.43
2022-09-03T15:36:22.399Z,52.84
2022-09-03T15:41:34.606Z,52.65
2022-09-03T15:46:39.562Z,52.76
2022-09-03T15:52:25.569Z,53.52
2022-09-03T15:57:35.384Z,53.18
2022-09-03T16:03:10.166Z,52.76
2022-09-03T16:08:24.515Z,53.25
2022-09-03T16:14:02.409Z,53.50
2022-09-03T16:19:13.097Z,53.47
2022-09-03T16:24:31.260Z,54.55
2022-09-03T16:29:33.324Z,54.61
2022-09-03T16:34:52.387Z,54.98
2022-09-03T16:40:09.721Z,54.95
2022-09-03T16:45:11.938Z,55.60
2022-09-03T16:50:47.811Z,55.62
2022-09-03T16:56:04.562Z,55.68
2022-09-03T17:01:12.567Z,56.71
2022-09-03T17:06:21.844Z,57.25
2022-09-03T17:11:37.863Z,57.27
2022-09-03T17:16:42.517Z,58.04
2022-09-03T17:22:20.148Z,58.91
2022-09-03T17:27:31.148Z,59.04
2022-09-03T17:32:47.749Z,59.22
2022-09-03T17:38:14.990Z,60.07
2022-09-03T17:43:34.489Z,60.39
2022-09-03T17:48:43.674Z,60.78
2022-09-03T17:53:59.661Z,60.67
2022-09-03T17:59:09.529Z,61.58
2022-09-03T18:04:38.864Z,62.02
2022-09-03T18:09:48.903Z,62.52
2022-09-03T18:15:04.628Z,62.53
2022-09-03T18:20:29.709Z,63.42
2022-09-03T18:25:54.017Z,63.01
2022-09-03T18:31:14.073Z,63.19
2022-09-03T18:36:34.495Z,63.84
2022-09-03T18:42:19.808Z,64.06
2022-09-03T18:48:15.302Z,64.58
2022-09-03T18:54:16.815Z,64.20
2022-09-03T18:59:44.879Z,64.46
2022-09-03T19:05:43.991Z,63.79
2022-09-03T19:11:14.175Z,63.63
2022-09-03T19:16:46.249Z,63.48
2022-09-03T19:22:18.234Z,63.16
2022-09-03T19:27:59.549Z,63.38
2022-09-03T19:33:39.688Z,63.47
2022-09-03T19:39:49.711Z,63.79
2022-09-03T19:45:36.393Z,63.58
2022-09-03T19:51:03.187Z,63.72
2022-09-03T19:56:47.109Z,64.29
2022-09-03T20:02:07.965Z,64.04
2022-09-03T20:07:29.032Z,64.35
2022-09-03T20:12:37.085Z,64.36
2022-09-03T20:17:43.786Z,65.12
2022-09-03T20:22:54.251Z,64.60
2022-09-03T20:28:28.140Z,64.98
2022-09-03T20:33:42.876Z,65.31
2022-09-03T20:38:56.528Z,65.29
2022-09-03T20:44:08.293Z,65.40
2022-09-03T20:49:30.828Z,65.42
2022-09-03T20:54:47.271Z,66.16
2022-09-03T21:00:12.583Z,65.66
2022-09-03T21:05:20.997Z,66.04
2022-09-03T21:10:55.074Z,66.53
2022-09-03T21:15:59.984Z,66.54
2022-09-03T21:21:43.088Z,66.61
2022-09-03T21:26:51.922Z,66.67
2022-09-03T21:32:10.093Z,66.22
2022-09-03T21:37:14.117Z,66.81
2022-09-03T21:42:36.443Z,67.12
2022-09-03T21:47:44.937Z,67.16
2022-09-03T21:53:15.281Z,67.08
2022-09-03T21:58:55.624Z,67.40
2022-09-03T22:03:57.301Z,67.79
2022-09-03T22:09:12.447Z,68.00
2022-09-03T22:14:16.828Z,68.07
2022-09-03T22:19:18.472Z,67.82
2022-09-03T22:24:38.541Z,68.34
2022-09-03T22:29:53.336Z,68.16
2022-09-03T22:35:30.689Z,68.27
2022-09-03T22:40:35.085Z,68.21
2022-09-03T22:46:11.778Z,68.74
2022-09-03T22:51:13.664Z,68.44
2022-09-03T22:56:22.304Z,69.17
2022-09-03T23:01:36.642Z,69.01
2022-09-03T23:06:55.409Z,69.11
2022-09-03T23:12:00.806Z,69.96
2022-09-03T23:17:11.193Z,70.11
2022-09-03T23:22:25.476Z,69.90
2022-09-03T23:27:56.953Z,70.42
2022-09-03T23:33:00.067Z,70.30
2022-09-03T23:38:20.645Z,70.96
2022-09-03T23:43:37.780Z,70.49
2022-09-03T23:48:48.647Z,70.62
2022-09-03T23:54:18.156Z,70.39
2022-09-03T23:59:22.713Z,70.93
